Layton, FL (33001)

12:46 PM EDT on April 28, 2015 (GMT -0400)
APRSWXNET | | Change Station
CLOSE
Current Station
Personal Weather Station
Location: Layton, FL
Elevation: 49 ft
Nearby Weather Stations

Elev 49 ft 24.84 °N, 80.79 °W | Updated 33 minutes ago

Clear
Clear
88 °F
Feels Like 103 °F
N
13
Wind Variable Wind from ESE
Gusts 22.0 mph

Today
High -- | Low -- °F
--% Chance of Precip.
Yesterday
High -- | Low -- °F
Precip. -- in
6:50 AM 7:51 PM
Waxing Gibbous, 75% visible
Pressure 29.81 in
Visibility 10.0 miles
Clouds Few 20000 ft
Heat Index 103 °F
Dew Point 79 °F
Humidity 74%
Rainfall in
Snow Depth Not available.
UV 13 out of 12
Pollen 6.30 out of 12
Air Quality Not available.
Flu Activity Local Activity
METAR KHST 281558Z AUTO 21015KT 10SM FEW200 31/23 A2980 RMK AO2 LTG DSNT NE SLP094 T03070230

More Conditions Fewer Conditions

Pressure 29.81 in
Visibility 10.0 miles
Clouds Few 20000 ft
Heat Index 103 °F
Dew Point 79 °F
Humidity 74%
Rainfall in
Snow Depth Not available.
UV 13 out of 12
Pollen 6.30 out of 12
Air Quality Not available.
Flu Activity Local Activity
METAR KHST 281558Z AUTO 21015KT 10SM FEW200 31/23 A2980 RMK AO2 LTG DSNT NE SLP094 T03070230

More Conditions Fewer Conditions

10-Day Weather Forecast

Almanac

Astronomy

Apr. 28, 2015 Rise Set
Actual Time
Civil Twilight
Nautical Twilight
Astronomical Twilight
Moon
Length of Visible Light
Length of Day
Tomorrow will be .
, % of the Moon is Illuminated

Today's Extremes

State Highs State Lows

Community

WunderPhotos

Upload Photos

1,817,699 photos uploaded!

WunderBlogs® & News

Nearby

Air Quality

  Air Quality AQ Index Pollutant
Not available.

Snow Depth

Station Depth Elevation

Earthquake Activity

City Distance Mag. Time & Date
Minimum magnitude displayed is 2.5.

Coastal Water Temperatures

Place Temperature

Stations

Nearby Weather Stations

Station Location Temp. Windchill Dew Point Humidity Wind Precip. Elev Updated Type